Station: Warooka

  Atmospheric Gas Attenuation - ITU Rec 676-11   --------------- db/100km ---------------
Date Time Temp RH % AH g/m3 Dew Point Wind Direction Speed kph Gust kph Barometer mB Rainfall Since 9am 24GHz 47GHz 76GHz 122GHz 134GHz 241GHz
03 09:00 17.5 99 14.76 17.3 4 1022.7 0 32.5 35.8 64.7 170.9 181.0 627.3
02 09:00 17 90 13.02 15.3 7 1016 0 28.9 32.5 56.8 149.7 155.1 537.0
01 09:00 18.9 84 13.61 16.1 22 1012.3 0 30.0 32.7 57.8 152.5 159.3 552.0
30 09:00 25 81 18.65 21.5 15 1011.6 0 40.2 39.3 75.4 199.6 219.1 761.1
29 09:00 18.6 70 11.14 13.1 4 1018 0 24.7 28.8 47.7 125.5 125.9 435.1
28 09:00 20.2 71 12.41 14.8 15 1021.9 0 27.3 30.5 52.2 137.4 140.9 487.7
27 09:00 17.5 76 11.33 13.3 22 1023.4 0 25.2 29.7 49.4 130.1 130.8 452.3
26 09:00 14 79 9.53 10.4 22 1021.6 0.1 21.6 27.7 43.9 115.2 111.4 383.8
25 09:00 16.3 76 10.54 12.1 28 1015 0.4 23.6 28.4 46.5 122.2 121.1 418.2
24 09:00 20.1 81 14.08 16.8 15 1011.2 1 30.9 33.0 58.9 155.5 163.5 566.6
23 09:00 17.5 80 11.93 14 11 1011.9 0.3 26.5 30.2 51.4 135.5 138.0 477.5
22 09:00 16.5 66 9.27 10.1 7 1020.6 0 20.9 26.5 41.4 108.7 104.3 359.4
21 09:00 15.5 54 7.14 6.3 15 1022.4 0 16.4 23.5 33.8 88.2 78.6 269.1
20 09:00 15 64 8.21 8.3 19 1015.3 1 18.7 25.0 37.8 99.0 92.0 316.3
19 09:00 15.9 70 9.48 10.4 28 1013 0.1 21.4 26.7 42.2 111.0 107.2 369.7
18 09:00 22.2 98 19.24 21.9 22 1007.8 0.1 41.8 41.6 80.9 214.2 236.4 820.8
17 09:00 16.7 94 13.36 15.7 4 1019.8 0 29.6 33.4 58.7 154.9 161.2 558.3
16 09:00 14 97 11.7 13.6 0 1022.3 0.3 26.2 31.5 53.3 140.4 142.3 491.8
15 09:00 12.5 94 10.34 11.6 7 1017.9 0.7 23.4 29.4 48.0 126.4 124.7 430.2
14 09:00 13.3 97 11.21 12.8 11 1014 2 25.2 30.5 51.2 134.8 135.5 468.1
13 09:00 14.2 97 11.84 13.8 4 1015.2 0.4 26.5 31.4 53.4 140.8 143.2 495.1
12 09:00 12.6 95 10.51 11.9 28 1008.8 0.4 23.8 29.3 48.3 127.1 126.0 435.0
11 09:00 12.5 62 6.82 5.5 30 1008.8 0 15.8 23.3 33.2 87.0 76.6 262.1
10 09:00 13.9 47 5.63 3 9 1014.2 0 13.3 21.4 28.5 74.4 61.3 208.4
09 09:00 16.3 62 8.6 9 7 1013.7 0 19.5 25.2 38.6 101.2 95.3 328.1
05 09:00 18 95 14.59 17.2 9 1017.3 0 32.2 35.0 63.2 166.9 176.5 611.8
04 09:00 15.9 69 9.34 10.2 15 1026.5 0 21.0 27.0 42.3 110.9 106.6 367.2
03 09:00 16.2 94 12.96 15.2 19 1017.1 5 28.8 32.7 57.1 150.7 156.0 540.0
02 09:00 22 73 14.17 17 11 1013.7 0 31.0 32.6 58.0 153.0 161.0 558.2
01 09:00 15.4 65 8.54 9 2 1020.8 0 19.4 25.6 39.1 102.5 96.2 331.0
31 09:00 15.4 61 8.01 8.1 7 1025.6 0.1 18.2 25.0 37.2 97.5 89.8 308.4
30 09:00 13 100 11.34 13 2 1026.2 1 25.5 31.4 52.6 138.4 139.3 481.1
29 09:00 12.9 73 8.23 8.3 11 1014.8 11 18.8 25.6 38.8 101.8 94.8 325.6
28 09:00 14.2 96 11.72 13.5 4 1007.1 4 26.3 30.8 52.5 138.3 140.6 485.9
27 09:00 21 34 6.23 4.7 19 1009.5 0 14.3 20.4 28.0 73.1 62.4 213.1
26 09:00 19 27 4.4 -0.1 7 1015.6 0 10.5 18.6 22.9 59.3 44.4 149.5
25 09:00 13.1 65 7.42 6.7 7 1023.9 0 17.1 24.6 35.9 93.9 84.7 290.2
24 09:00 15.6 61 8.11 8.1 11 1027 0 18.4 25.1 37.6 98.4 90.9 312.4
23 09:00 15 53 6.8 5.6 7 1022.6 0 15.7 23.1 32.7 85.4 74.9 256.1
22 09:00 15.8 81 10.9 12.5 2 1015 0.1 24.4 29.2 48.3 127.0 126.9 438.3
21 09:00 16 94 12.81 15.1 7 1012.4 0.4 28.5 32.4 56.4 148.6 153.6 531.8
20 09:00 17 71 10.27 11.7 15 1011.4 0 23.0 27.6 44.8 117.8 116.0 400.6
19 09:00 15 78 10 11.3 19 1021.6 0 22.5 28.2 45.3 119.0 116.3 401.3
18 09:00 14.9 82 10.45 11.8 26 1014.7 0 23.5 28.7 46.9 123.4 122.0 421.3
15 09:00 13 94 10.66 12.1 19 1012.3 3 24.1 29.6 48.8 128.6 127.9 441.5
14 09:00 12 87 9.27 9.9 9 1001.8 5 21.1 27.1 43.0 113.0 108.9 375.0
13 09:00 11.5 81 8.37 8.3 19 1006 6 19.2 25.9 39.7 104.3 97.7 335.7
12 09:00 12.6 67 7.41 6.6 2 1013.2 0 17.1 24.3 35.7 93.4 84.3 289.0
11 09:00 11.4 72 7.39 6.6 7 1022.1 0.1 17.1 25.0 36.5 95.5 86.0 294.6
10 09:00 12.4 72 7.87 7.5 4 1018.6 0 18.1 25.3 37.8 99.0 90.9 312.0
09 09:00 16 90 12.26 14.3 15 1012.2 0 27.3 31.4 53.9 142.1 145.6 503.6
08 09:00 11.6 92 9.56 10.4 4 1015.4 0 21.8 28.3 45.1 118.5 114.7 395.4
07 09:00 10.3 83 7.95 7.6 11 1018.3 0 18.4 26.0 39.1 102.5 94.5 324.2
05 09:00 12 82 8.74 9 0 1016.7 10 20.0 26.8 41.4 108.8 102.9 354.0
01 09:00 13.9 97 11.63 13.4 15 1013.2 0.7 26.1 31.0 52.6 138.6 140.5 485.5
30 09:00 14.2 97 11.84 13.8 7 1011.5 0.9 26.5 31.2 53.2 140.3 142.8 493.7
29 09:00 17.3 93 13.7 16.1 2 1011.9 0.1 30.3 33.4 59.4 156.7 164.0 568.2
28 09:00 19.5 96 16.11 18.9 2 1007.7 0 35.3 36.8 68.5 181.0 194.8 675.6
27 09:00 17 99 14.32 16.8 19 1016.1 0 31.7 34.9 62.7 165.5 174.6 604.9
26 09:00 13 94 10.66 12.1 22 1025.6 0 24.0 30.1 49.5 130.2 129.2 446.1
25 09:00 12.6 96 10.62 12 4 1024.4 0.1 24.0 30.1 49.5 130.3 129.2 445.9
24 09:00 13 94 10.66 12.1 15 1017.5 0.2 24.0 29.8 49.1 129.2 128.4 443.3
23 09:00 14.1 89 10.8 12.3 22 1023.8 0 24.3 29.9 49.3 129.8 129.2 446.1
22 09:00 12 89 9.49 10.3 2 1032 0.2 21.6 28.7 45.3 118.9 114.7 395.0
21 09:00 12.6 82 9.07 9.7 15 1034 3 20.6 27.8 43.3 113.5 108.1 372.1
20 09:00 11.1 86 8.66 8.9 22 1023.5 3 19.8 27.2 41.9 109.9 103.6 356.2
19 09:00 14.5 84 10.45 11.9 15 1020.2 0 23.5 29.0 47.4 124.7 123.2 425.3
18 09:00 13.2 81 9.3 10.1 19 1019.9 0.4 21.1 27.5 43.3 113.6 109.2 376.1
17 09:00 18.5 85 13.45 16 22 1008.5 0 29.7 32.4 57.2 150.9 157.4 545.2
16 09:00 14.2 68 8.3 8.5 15 1019.1 0 18.9 25.5 38.7 101.3 94.4 324.6
15 09:00 12 76 8.1 7.9 9 1026.7 0 18.6 26.1 39.3 102.8 95.1 326.4
14 09:00 11.3 66 6.73 5.2 2 1028.9 0.1 15.7 24.2 34.2 89.3 78.0 266.5
13 09:00 11.1 80 8.06 7.8 11 1026.5 4 18.5 26.3 39.5 103.5 95.6 328.3
10 09:00 15.6 94 12.5 14.6 7 1020.1 0 27.8 32.3 55.7 146.7 150.8 521.6
09 09:00 16 96 13.08 15.3 19 1024.4 0 29.0 33.3 58.2 153.5 159.1 550.6
08 09:00 13.4 94 10.93 12.5 11 1031.4 0 24.6 30.7 50.8 133.4 133.1 459.4
07 09:00 12.8 92 10.31 11.5 2 1036.4 3 23.3 30.0 48.7 127.7 125.6 433.2
06 09:00 12.1 97 10.4 11.7 2 1035.4 0.4 23.5 30.4 49.4 129.8 128.0 441.4
05 09:00 11.5 96 9.92 10.9 4 1030.4 0.2 22.5 29.5 47.4 124.5 121.5 418.7
04 09:00 9.6 96 8.8 9 11 1024.4 2 20.2 27.9 43.4 113.7 107.7 370.4
03 09:00 11.9 95 10.06 11.1 2 1015.9 0.4 22.8 29.0 47.1 123.8 121.4 418.8
02 09:00 19.4 81 13.51 16.1 26 1008.3 0 29.8 32.2 56.7 149.8 156.4 541.8
01 09:00 13.6 93 10.95 12.5 2 1020.5 0 24.6 30.2 50.2 132.0 131.9 455.4
31 09:00 15.2 87 11.29 13 15 1013.5 0 25.3 30.0 50.2 132.3 133.2 460.5
30 09:00 13.7 92 10.89 12.4 19 1014.2 0.2 24.5 29.8 49.5 130.3 130.2 449.6
29 09:00 12.5 88 9.68 10.6 2 1014.3 2 22.0 28.1 45.0 118.3 115.0 396.3
28 09:00 12.5 97 10.67 12.1 22 1011.1 0 24.1 29.7 49.1 129.4 128.8 444.5
27 09:00 8.6 97 8.34 8.2 2 1017.8 0 19.3 27.2 41.6 109.2 102.0 350.3
26 09:00 10 97 9.12 9.6 2 1025.2 4 20.9 28.4 44.6 116.9 111.8 384.6
25 09:00 11 93 9.31 10 0 1028.6 0.8 21.2 28.5 45.0 118.0 113.3 390.1
24 09:00 11.1 92 9.27 9.9 7 1029.1 0.4 21.1 28.5 44.8 117.5 112.6 387.8
23 09:00 9.9 95 8.87 9.1 22 1017.1 3 20.4 27.7 43.1 113.3 107.6 370.2
20 09:00 14 97 11.7 13.6 11 1014.7 0.1 26.2 31.2 52.9 139.4 141.5 489.0
19 09:00 11.9 95 10.06 11.1 7 1018.8 0 22.8 29.2 47.2 124.2 121.7 419.7
18 09:00 9.9 93 8.69 8.9 0 1025.4 0.1 20.0 27.7 42.8 112.2 105.8 363.8
17 09:00 11 95 9.51 10.2 0 1030.8 0.1 21.7 29.0 46.0 120.6 116.4 400.8
16 09:00 12.4 95 10.38 11.7 0 1031.4 0 23.5 30.1 49.0 128.6 126.8 437.3
15 09:00 13 94 10.66 12.1 4 1027.8 0 24.0 30.2 49.6 130.5 129.5 446.8
14 09:00 11.1 99 9.97 10.9 2 1029.1 0.4 22.6 29.7 47.8 125.6 122.7 423.0
13 09:00 12.5 95 10.45 11.8 0 1030.4 1 23.6 30.1 49.2 129.1 127.5 439.9

Last Refresh: 03-Dec-2021 09:22:41

Bureau of Meteorology